sensor_id;sensor_type;location;lat;lon;timestamp;P1;durP1;ratioP1;P2;durP2;ratioP2
18499;SDS011;9379;52.134;11.576;2023-08-21T00:01:55;2.67;;;2.47;;
18499;SDS011;9379;52.134;11.576;2023-08-21T00:04:22;5.93;;;2.55;;
18499;SDS011;9379;52.134;11.576;2023-08-21T00:06:49;3.67;;;2.72;;
18499;SDS011;9379;52.134;11.576;2023-08-21T00:09:16;3.35;;;2.97;;
18499;SDS011;9379;52.134;11.576;2023-08-21T00:11:44;2.50;;;2.28;;
18499;SDS011;9379;52.134;11.576;2023-08-21T00:14:11;6.95;;;3.75;;
18499;SDS011;9379;52.134;11.576;2023-08-21T00:16:39;3.45;;;3.15;;
18499;SDS011;9379;52.134;11.576;2023-08-21T00:19:06;4.97;;;3.38;;
18499;SDS011;9379;52.134;11.576;2023-08-21T00:21:33;4.38;;;3.38;;
18499;SDS011;9379;52.134;11.576;2023-08-21T00:24:01;3.95;;;2.80;;
18499;SDS011;9379;52.134;11.576;2023-08-21T00:26:28;2.92;;;2.72;;
18499;SDS011;9379;52.134;11.576;2023-08-21T00:28:55;4.22;;;3.35;;
18499;SDS011;9379;52.134;11.576;2023-08-21T00:31:23;4.97;;;3.38;;
18499;SDS011;9379;52.134;11.576;2023-08-21T00:33:51;4.10;;;2.67;;
18499;SDS011;9379;52.134;11.576;2023-08-21T00:36:18;2.95;;;2.75;;
18499;SDS011;9379;52.134;11.576;2023-08-21T00:38:48;5.43;;;2.53;;
18499;SDS011;9379;52.134;11.576;2023-08-21T00:41:15;2.15;;;1.92;;
18499;SDS011;9379;52.134;11.576;2023-08-21T00:43:44;4.95;;;2.70;;
18499;SDS011;9379;52.134;11.576;2023-08-21T00:46:11;2.53;;;2.33;;
18499;SDS011;9379;52.134;11.576;2023-08-21T00:48:39;3.10;;;2.90;;
18499;SDS011;9379;52.134;11.576;2023-08-21T00:51:08;1.85;;;1.75;;
18499;SDS011;9379;52.134;11.576;2023-08-21T00:53:36;1.98;;;1.88;;
18499;SDS011;9379;52.134;11.576;2023-08-21T00:56:03;2.80;;;2.55;;
18499;SDS011;9379;52.134;11.576;2023-08-21T00:58:30;3.20;;;2.90;;
18499;SDS011;9379;52.134;11.576;2023-08-21T01:00:58;2.00;;;1.90;;
18499;SDS011;9379;52.134;11.576;2023-08-21T01:03:26;4.95;;;2.10;;
18499;SDS011;9379;52.134;11.576;2023-08-21T01:05:54;2.78;;;2.42;;
18499;SDS011;9379;52.134;11.576;2023-08-21T01:08:24;4.00;;;2.92;;
18499;SDS011;9379;52.134;11.576;2023-08-21T01:11:02;2.90;;;2.60;;
18499;SDS011;9379;52.134;11.576;2023-08-21T01:13:40;2.45;;;2.25;;
18499;SDS011;9379;52.134;11.576;2023-08-21T01:16:14;6.78;;;2.40;;
18499;SDS011;9379;52.134;11.576;2023-08-21T01:18:44;2.85;;;2.60;;
18499;SDS011;9379;52.134;11.576;2023-08-21T01:21:14;3.15;;;2.85;;
18499;SDS011;9379;52.134;11.576;2023-08-21T01:23:43;9.50;;;2.20;;
18499;SDS011;9379;52.134;11.576;2023-08-21T01:26:12;5.70;;;2.60;;
18499;SDS011;9379;52.134;11.576;2023-08-21T01:28:41;4.50;;;2.95;;
18499;SDS011;9379;52.134;11.576;2023-08-21T01:31:11;2.95;;;2.63;;
18499;SDS011;9379;52.134;11.576;2023-08-21T01:33:44;2.97;;;2.47;;
18499;SDS011;9379;52.134;11.576;2023-08-21T01:36:14;1.67;;;1.58;;
18499;SDS011;9379;52.134;11.576;2023-08-21T01:38:45;2.78;;;2.58;;
18499;SDS011;9379;52.134;11.576;2023-08-21T01:41:14;23.30;;;4.15;;
18499;SDS011;9379;52.134;11.576;2023-08-21T01:43:40;4.70;;;1.80;;
18499;SDS011;9379;52.134;11.576;2023-08-21T01:46:08;2.83;;;2.40;;
18499;SDS011;9379;52.134;11.576;2023-08-21T01:48:36;2.17;;;2.08;;
18499;SDS011;9379;52.134;11.576;2023-08-21T01:51:03;2.92;;;2.60;;
18499;SDS011;9379;52.134;11.576;2023-08-21T01:53:30;2.70;;;2.40;;
18499;SDS011;9379;52.134;11.576;2023-08-21T01:55:59;4.57;;;2.63;;
18499;SDS011;9379;52.134;11.576;2023-08-21T01:58:27;4.82;;;2.33;;
18499;SDS011;9379;52.134;11.576;2023-08-21T02:00:54;2.95;;;2.63;;
18499;SDS011;9379;52.134;11.576;2023-08-21T02:03:24;2.63;;;2.42;;
18499;SDS011;9379;52.134;11.576;2023-08-21T02:05:54;2.15;;;2.00;;
18499;SDS011;9379;52.134;11.576;2023-08-21T02:08:22;2.60;;;2.30;;
18499;SDS011;9379;52.134;11.576;2023-08-21T02:10:50;3.25;;;2.70;;
18499;SDS011;9379;52.134;11.576;2023-08-21T02:13:19;1.90;;;1.80;;
18499;SDS011;9379;52.134;11.576;2023-08-21T02:15:46;6.10;;;2.47;;
18499;SDS011;9379;52.134;11.576;2023-08-21T02:18:13;3.92;;;3.50;;
18499;SDS011;9379;52.134;11.576;2023-08-21T02:20:40;2.10;;;2.00;;
18499;SDS011;9379;52.134;11.576;2023-08-21T02:23:07;3.88;;;2.60;;
18499;SDS011;9379;52.134;11.576;2023-08-21T02:25:35;2.97;;;2.60;;
18499;SDS011;9379;52.134;11.576;2023-08-21T02:28:02;2.40;;;2.20;;
18499;SDS011;9379;52.134;11.576;2023-08-21T02:30:32;3.03;;;2.75;;
18499;SDS011;9379;52.134;11.576;2023-08-21T02:32:59;3.05;;;2.72;;
18499;SDS011;9379;52.134;11.576;2023-08-21T02:35:26;4.38;;;2.65;;
18499;SDS011;9379;52.134;11.576;2023-08-21T02:37:54;2.67;;;2.47;;
18499;SDS011;9379;52.134;11.576;2023-08-21T02:40:21;2.30;;;2.10;;
18499;SDS011;9379;52.134;11.576;2023-08-21T02:42:50;7.07;;;3.00;;
18499;SDS011;9379;52.134;11.576;2023-08-21T02:45:18;6.05;;;3.40;;
18499;SDS011;9379;52.134;11.576;2023-08-21T02:47:46;3.00;;;2.80;;
18499;SDS011;9379;52.134;11.576;2023-08-21T02:50:14;2.53;;;2.20;;
18499;SDS011;9379;52.134;11.576;2023-08-21T02:52:41;4.10;;;3.03;;
18499;SDS011;9379;52.134;11.576;2023-08-21T02:55:09;4.10;;;3.03;;
18499;SDS011;9379;52.134;11.576;2023-08-21T02:57:36;2.75;;;2.05;;
18499;SDS011;9379;52.134;11.576;2023-08-21T03:00:04;3.85;;;3.28;;
18499;SDS011;9379;52.134;11.576;2023-08-21T03:02:32;4.13;;;2.35;;
18499;SDS011;9379;52.134;11.576;2023-08-21T03:05:02;3.10;;;2.67;;
18499;SDS011;9379;52.134;11.576;2023-08-21T03:07:28;2.38;;;2.13;;
18499;SDS011;9379;52.134;11.576;2023-08-21T03:09:57;2.03;;;1.92;;
18499;SDS011;9379;52.134;11.576;2023-08-21T03:12:24;1.98;;;1.88;;
18499;SDS011;9379;52.134;11.576;2023-08-21T03:14:51;2.75;;;2.53;;
18499;SDS011;9379;52.134;11.576;2023-08-21T03:17:21;2.42;;;2.22;;
18499;SDS011;9379;52.134;11.576;2023-08-21T03:19:48;2.90;;;2.20;;
18499;SDS011;9379;52.134;11.576;2023-08-21T03:22:17;2.08;;;1.98;;
18499;SDS011;9379;52.134;11.576;2023-08-21T03:24:45;2.33;;;2.20;;
18499;SDS011;9379;52.134;11.576;2023-08-21T03:27:14;2.10;;;2.00;;
18499;SDS011;9379;52.134;11.576;2023-08-21T03:29:41;2.00;;;1.85;;
18499;SDS011;9379;52.134;11.576;2023-08-21T03:32:13;3.25;;;2.33;;
18499;SDS011;9379;52.134;11.576;2023-08-21T03:34:40;3.03;;;2.30;;
18499;SDS011;9379;52.134;11.576;2023-08-21T03:37:08;2.30;;;2.10;;
18499;SDS011;9379;52.134;11.576;2023-08-21T03:39:38;2.30;;;2.20;;
18499;SDS011;9379;52.134;11.576;2023-08-21T03:42:05;1.95;;;1.80;;
18499;SDS011;9379;52.134;11.576;2023-08-21T03:44:33;2.50;;;2.30;;
18499;SDS011;9379;52.134;11.576;2023-08-21T03:47:00;6.28;;;2.75;;
18499;SDS011;9379;52.134;11.576;2023-08-21T03:49:26;1.75;;;1.65;;
18499;SDS011;9379;52.134;11.576;2023-08-21T03:51:53;4.95;;;3.33;;
18499;SDS011;9379;52.134;11.576;2023-08-21T03:54:20;3.22;;;2.60;;
18499;SDS011;9379;52.134;11.576;2023-08-21T03:56:49;6.80;;;2.80;;
18499;SDS011;9379;52.134;11.576;2023-08-21T03:59:16;3.05;;;2.35;;
18499;SDS011;9379;52.134;11.576;2023-08-21T04:01:43;5.07;;;2.72;;
18499;SDS011;9379;52.134;11.576;2023-08-21T04:04:10;3.80;;;3.42;;
18499;SDS011;9379;52.134;11.576;2023-08-21T04:06:37;4.22;;;3.05;;
18499;SDS011;9379;52.134;11.576;2023-08-21T04:09:04;2.30;;;1.92;;
18499;SDS011;9379;52.134;11.576;2023-08-21T04:11:32;4.30;;;3.75;;
18499;SDS011;9379;52.134;11.576;2023-08-21T04:14:00;4.22;;;3.10;;
18499;SDS011;9379;52.134;11.576;2023-08-21T04:16:27;2.45;;;2.33;;
18499;SDS011;9379;52.134;11.576;2023-08-21T04:18:55;1.75;;;1.65;;
18499;SDS011;9379;52.134;11.576;2023-08-21T04:21:23;5.32;;;2.92;;
18499;SDS011;9379;52.134;11.576;2023-08-21T04:23:51;3.20;;;2.90;;
18499;SDS011;9379;52.134;11.576;2023-08-21T04:26:18;4.57;;;2.38;;
18499;SDS011;9379;52.134;11.576;2023-08-21T04:28:45;3.17;;;2.05;;
18499;SDS011;9379;52.134;11.576;2023-08-21T04:31:15;3.25;;;2.95;;
18499;SDS011;9379;52.134;11.576;2023-08-21T04:33:44;5.43;;;2.10;;
18499;SDS011;9379;52.134;11.576;2023-08-21T04:36:15;2.70;;;2.50;;
18499;SDS011;9379;52.134;11.576;2023-08-21T04:38:42;4.25;;;2.58;;
18499;SDS011;9379;52.134;11.576;2023-08-21T04:41:10;2.08;;;1.95;;
18499;SDS011;9379;52.134;11.576;2023-08-21T04:43:37;3.78;;;3.17;;
18499;SDS011;9379;52.134;11.576;2023-08-21T04:46:05;2.25;;;2.08;;
18499;SDS011;9379;52.134;11.576;2023-08-21T04:48:35;4.40;;;2.28;;
18499;SDS011;9379;52.134;11.576;2023-08-21T04:51:02;2.70;;;2.50;;
18499;SDS011;9379;52.134;11.576;2023-08-21T04:53:29;3.40;;;2.47;;
18499;SDS011;9379;52.134;11.576;2023-08-21T04:55:58;1.85;;;1.75;;
18499;SDS011;9379;52.134;11.576;2023-08-21T04:58:25;2.83;;;2.38;;
18499;SDS011;9379;52.134;11.576;2023-08-21T05:00:52;4.70;;;2.53;;
18499;SDS011;9379;52.134;11.576;2023-08-21T05:03:19;3.80;;;2.50;;
18499;SDS011;9379;52.134;11.576;2023-08-21T05:05:53;3.35;;;2.50;;
18499;SDS011;9379;52.134;11.576;2023-08-21T05:08:22;3.55;;;3.25;;
18499;SDS011;9379;52.134;11.576;2023-08-21T05:10:54;2.92;;;2.55;;
18499;SDS011;9379;52.134;11.576;2023-08-21T05:13:22;2.78;;;2.55;;
18499;SDS011;9379;52.134;11.576;2023-08-21T05:15:52;2.20;;;2.00;;
18499;SDS011;9379;52.134;11.576;2023-08-21T05:18:23;2.35;;;2.15;;
18499;SDS011;9379;52.134;11.576;2023-08-21T05:20:52;3.05;;;2.75;;
18499;SDS011;9379;52.134;11.576;2023-08-21T05:23:22;2.97;;;2.67;;
18499;SDS011;9379;52.134;11.576;2023-08-21T05:25:51;4.90;;;2.58;;
18499;SDS011;9379;52.134;11.576;2023-08-21T05:28:18;2.92;;;2.63;;
18499;SDS011;9379;52.134;11.576;2023-08-21T05:30:46;2.60;;;2.40;;
18499;SDS011;9379;52.134;11.576;2023-08-21T05:33:15;4.82;;;3.38;;
18499;SDS011;9379;52.134;11.576;2023-08-21T05:35:42;4.63;;;2.40;;
18499;SDS011;9379;52.134;11.576;2023-08-21T05:38:13;3.08;;;2.38;;
18499;SDS011;9379;52.134;11.576;2023-08-21T05:40:40;2.97;;;2.78;;
18499;SDS011;9379;52.134;11.576;2023-08-21T05:43:08;3.88;;;3.38;;
18499;SDS011;9379;52.134;11.576;2023-08-21T05:45:35;3.58;;;3.28;;
18499;SDS011;9379;52.134;11.576;2023-08-21T05:48:02;2.85;;;2.63;;
18499;SDS011;9379;52.134;11.576;2023-08-21T05:50:30;3.25;;;2.95;;
18499;SDS011;9379;52.134;11.576;2023-08-21T05:52:56;5.45;;;3.30;;
18499;SDS011;9379;52.134;11.576;2023-08-21T05:55:28;2.97;;;2.70;;
18499;SDS011;9379;52.134;11.576;2023-08-21T05:57:55;3.55;;;3.30;;
18499;SDS011;9379;52.134;11.576;2023-08-21T06:00:22;4.15;;;2.80;;
18499;SDS011;9379;52.134;11.576;2023-08-21T06:02:51;3.67;;;2.70;;
18499;SDS011;9379;52.134;11.576;2023-08-21T06:05:19;12.82;;;2.78;;
18499;SDS011;9379;52.134;11.576;2023-08-21T06:07:46;4.63;;;3.80;;
18499;SDS011;9379;52.134;11.576;2023-08-21T06:10:13;3.92;;;3.15;;
18499;SDS011;9379;52.134;11.576;2023-08-21T06:12:42;1.73;;;1.63;;
18499;SDS011;9379;52.134;11.576;2023-08-21T06:15:10;3.45;;;2.97;;
18499;SDS011;9379;52.134;11.576;2023-08-21T06:17:37;3.50;;;2.53;;
18499;SDS011;9379;52.134;11.576;2023-08-21T06:20:05;3.92;;;2.70;;
18499;SDS011;9379;52.134;11.576;2023-08-21T06:22:33;2.38;;;2.22;;
18499;SDS011;9379;52.134;11.576;2023-08-21T06:25:01;2.72;;;2.53;;
18499;SDS011;9379;52.134;11.576;2023-08-21T06:27:28;1.90;;;1.70;;
18499;SDS011;9379;52.134;11.576;2023-08-21T06:29:57;2.00;;;1.80;;
18499;SDS011;9379;52.134;11.576;2023-08-21T06:32:24;2.75;;;2.30;;
18499;SDS011;9379;52.134;11.576;2023-08-21T06:34:51;4.03;;;2.40;;
18499;SDS011;9379;52.134;11.576;2023-08-21T06:37:19;2.40;;;2.20;;
18499;SDS011;9379;52.134;11.576;2023-08-21T06:39:47;2.33;;;1.85;;
18499;SDS011;9379;52.134;11.576;2023-08-21T06:42:14;2.85;;;1.77;;
18499;SDS011;9379;52.134;11.576;2023-08-21T06:44:42;3.58;;;3.28;;
18499;SDS011;9379;52.134;11.576;2023-08-21T06:47:10;4.65;;;2.35;;
18499;SDS011;9379;52.134;11.576;2023-08-21T06:49:38;1.58;;;1.48;;
18499;SDS011;9379;52.134;11.576;2023-08-21T06:52:05;4.25;;;3.03;;
18499;SDS011;9379;52.134;11.576;2023-08-21T06:54:32;11.35;;;3.08;;
18499;SDS011;9379;52.134;11.576;2023-08-21T06:57:00;2.40;;;2.20;;
18499;SDS011;9379;52.134;11.576;2023-08-21T06:59:26;2.03;;;1.92;;
18499;SDS011;9379;52.134;11.576;2023-08-21T07:01:54;2.70;;;2.38;;
18499;SDS011;9379;52.134;11.576;2023-08-21T07:04:23;3.30;;;2.70;;
18499;SDS011;9379;52.134;11.576;2023-08-21T07:06:50;2.20;;;1.92;;
18499;SDS011;9379;52.134;11.576;2023-08-21T07:09:17;2.00;;;1.80;;
18499;SDS011;9379;52.134;11.576;2023-08-21T07:11:44;2.17;;;2.03;;
18499;SDS011;9379;52.134;11.576;2023-08-21T07:14:11;1.83;;;1.50;;
18499;SDS011;9379;52.134;11.576;2023-08-21T07:16:39;3.38;;;1.60;;
18499;SDS011;9379;52.134;11.576;2023-08-21T07:19:06;2.80;;;2.03;;
18499;SDS011;9379;52.134;11.576;2023-08-21T07:21:35;1.45;;;1.35;;
18499;SDS011;9379;52.134;11.576;2023-08-21T07:24:03;4.15;;;1.63;;
18499;SDS011;9379;52.134;11.576;2023-08-21T07:26:30;2.63;;;2.45;;
18499;SDS011;9379;52.134;11.576;2023-08-21T07:28:57;2.70;;;1.40;;
18499;SDS011;9379;52.134;11.576;2023-08-21T07:31:29;2.45;;;1.40;;
18499;SDS011;9379;52.134;11.576;2023-08-21T07:33:56;2.35;;;1.60;;
18499;SDS011;9379;52.134;11.576;2023-08-21T07:36:23;3.95;;;1.35;;
18499;SDS011;9379;52.134;11.576;2023-08-21T07:38:51;2.28;;;2.08;;
18499;SDS011;9379;52.134;11.576;2023-08-21T07:41:18;1.10;;;1.00;;
18499;SDS011;9379;52.134;11.576;2023-08-21T07:43:45;1.08;;;0.90;;
18499;SDS011;9379;52.134;11.576;2023-08-21T07:46:12;1.20;;;1.10;;
18499;SDS011;9379;52.134;11.576;2023-08-21T07:48:41;1.35;;;1.25;;
18499;SDS011;9379;52.134;11.576;2023-08-21T07:51:08;1.45;;;0.95;;
18499;SDS011;9379;52.134;11.576;2023-08-21T07:53:36;1.48;;;1.30;;
18499;SDS011;9379;52.134;11.576;2023-08-21T07:56:06;1.13;;;1.00;;
18499;SDS011;9379;52.134;11.576;2023-08-21T07:58:33;1.05;;;0.80;;
18499;SDS011;9379;52.134;11.576;2023-08-21T08:01:00;1.48;;;1.02;;
18499;SDS011;9379;52.134;11.576;2023-08-21T08:03:31;0.77;;;0.68;;
18499;SDS011;9379;52.134;11.576;2023-08-21T08:05:58;1.52;;;1.00;;
18499;SDS011;9379;52.134;11.576;2023-08-21T08:08:27;0.70;;;0.70;;
18499;SDS011;9379;52.134;11.576;2023-08-21T08:10:59;1.48;;;1.38;;
18499;SDS011;9379;52.134;11.576;2023-08-21T08:13:29;1.85;;;1.48;;
18499;SDS011;9379;52.134;11.576;2023-08-21T08:15:56;1.00;;;0.93;;
18499;SDS011;9379;52.134;11.576;2023-08-21T08:18:24;2.55;;;1.48;;
18499;SDS011;9379;52.134;11.576;2023-08-21T08:20:51;1.42;;;1.00;;
18499;SDS011;9379;52.134;11.576;2023-08-21T08:23:18;2.83;;;1.35;;
18499;SDS011;9379;52.134;11.576;2023-08-21T08:25:48;1.70;;;1.42;;
18499;SDS011;9379;52.134;11.576;2023-08-21T08:28:15;12.98;;;2.28;;
18499;SDS011;9379;52.134;11.576;2023-08-21T08:30:44;0.93;;;0.93;;
18499;SDS011;9379;52.134;11.576;2023-08-21T08:33:12;0.88;;;0.88;;
18499;SDS011;9379;52.134;11.576;2023-08-21T08:35:38;1.00;;;0.90;;
18499;SDS011;9379;52.134;11.576;2023-08-21T08:38:06;0.68;;;0.68;;
18499;SDS011;9379;52.134;11.576;2023-08-21T08:40:33;1.05;;;0.98;;
18499;SDS011;9379;52.134;11.576;2023-08-21T08:43:07;3.25;;;1.23;;
18499;SDS011;9379;52.134;11.576;2023-08-21T08:45:34;1.23;;;1.13;;
18499;SDS011;9379;52.134;11.576;2023-08-21T08:48:05;2.90;;;1.77;;
18499;SDS011;9379;52.134;11.576;2023-08-21T08:50:33;2.60;;;1.13;;
18499;SDS011;9379;52.134;11.576;2023-08-21T08:53:01;1.10;;;1.00;;
18499;SDS011;9379;52.134;11.576;2023-08-21T08:55:28;1.45;;;1.35;;
18499;SDS011;9379;52.134;11.576;2023-08-21T08:57:56;2.65;;;1.10;;
18499;SDS011;9379;52.134;11.576;2023-08-21T09:00:24;1.45;;;1.27;;
18499;SDS011;9379;52.134;11.576;2023-08-21T09:02:52;1.40;;;1.05;;
18499;SDS011;9379;52.134;11.576;2023-08-21T09:05:22;1.85;;;0.70;;
18499;SDS011;9379;52.134;11.576;2023-08-21T09:08:01;1.35;;;0.80;;
18499;SDS011;9379;52.134;11.576;2023-08-21T09:10:29;1.17;;;1.08;;
18499;SDS011;9379;52.134;11.576;2023-08-21T09:12:57;1.48;;;1.38;;
18499;SDS011;9379;52.134;11.576;2023-08-21T09:15:29;1.40;;;1.30;;
18499;SDS011;9379;52.134;11.576;2023-08-21T09:17:56;1.52;;;1.02;;
18499;SDS011;9379;52.134;11.576;2023-08-21T09:20:25;0.93;;;0.93;;
18499;SDS011;9379;52.134;11.576;2023-08-21T09:22:52;1.20;;;1.10;;
18499;SDS011;9379;52.134;11.576;2023-08-21T09:25:21;1.40;;;0.98;;
18499;SDS011;9379;52.134;11.576;2023-08-21T09:27:51;1.15;;;0.95;;
18499;SDS011;9379;52.134;11.576;2023-08-21T09:30:18;2.35;;;0.98;;
18499;SDS011;9379;52.134;11.576;2023-08-21T09:32:52;4.60;;;1.10;;
18499;SDS011;9379;52.134;11.576;2023-08-21T09:35:27;0.80;;;0.80;;
18499;SDS011;9379;52.134;11.576;2023-08-21T09:37:54;2.22;;;1.40;;
18499;SDS011;9379;52.134;11.576;2023-08-21T09:40:21;8.02;;;1.70;;
18499;SDS011;9379;52.134;11.576;2023-08-21T09:42:51;2.92;;;1.92;;
18499;SDS011;9379;52.134;11.576;2023-08-21T09:45:20;2.10;;;1.50;;
18499;SDS011;9379;52.134;11.576;2023-08-21T09:47:47;4.32;;;1.40;;
18499;SDS011;9379;52.134;11.576;2023-08-21T09:50:15;1.75;;;1.27;;
18499;SDS011;9379;52.134;11.576;2023-08-21T09:52:46;2.67;;;1.25;;
18499;SDS011;9379;52.134;11.576;2023-08-21T09:55:13;3.85;;;1.33;;
18499;SDS011;9379;52.134;11.576;2023-08-21T09:57:42;0.80;;;0.80;;
18499;SDS011;9379;52.134;11.576;2023-08-21T10:00:10;1.15;;;1.05;;
18499;SDS011;9379;52.134;11.576;2023-08-21T10:02:41;1.15;;;0.93;;
18499;SDS011;9379;52.134;11.576;2023-08-21T10:05:13;2.63;;;2.17;;
18499;SDS011;9379;52.134;11.576;2023-08-21T10:07:43;1.10;;;1.00;;
18499;SDS011;9379;52.134;11.576;2023-08-21T10:10:14;1.13;;;1.02;;
18499;SDS011;9379;52.134;11.576;2023-08-21T10:12:41;1.60;;;1.20;;
18499;SDS011;9379;52.134;11.576;2023-08-21T10:15:08;0.85;;;0.85;;
18499;SDS011;9379;52.134;11.576;2023-08-21T10:17:37;1.48;;;1.17;;
18499;SDS011;9379;52.134;11.576;2023-08-21T10:20:05;3.53;;;1.75;;
18499;SDS011;9379;52.134;11.576;2023-08-21T10:22:38;2.30;;;1.45;;
18499;SDS011;9379;52.134;11.576;2023-08-21T10:25:17;1.15;;;1.05;;
18499;SDS011;9379;52.134;11.576;2023-08-21T10:27:49;0.70;;;0.70;;
18499;SDS011;9379;52.134;11.576;2023-08-21T10:30:20;4.03;;;1.40;;
18499;SDS011;9379;52.134;11.576;2023-08-21T10:32:48;2.03;;;1.38;;
18499;SDS011;9379;52.134;11.576;2023-08-21T10:35:17;1.25;;;1.15;;
18499;SDS011;9379;52.134;11.576;2023-08-21T10:40:39;1.58;;;1.42;;
18499;SDS011;9379;52.134;11.576;2023-08-21T10:43:39;1.05;;;1.02;;
18499;SDS011;9379;52.134;11.576;2023-08-21T10:46:08;2.03;;;1.00;;
18499;SDS011;9379;52.134;11.576;2023-08-21T10:48:36;1.02;;;1.02;;
18499;SDS011;9379;52.134;11.576;2023-08-21T10:51:04;1.20;;;0.95;;
18499;SDS011;9379;52.134;11.576;2023-08-21T10:53:32;2.67;;;1.67;;
18499;SDS011;9379;52.134;11.576;2023-08-21T10:56:13;3.05;;;1.92;;
18499;SDS011;9379;52.134;11.576;2023-08-21T10:58:41;1.20;;;1.10;;
18499;SDS011;9379;52.134;11.576;2023-08-21T11:01:12;2.75;;;1.00;;
18499;SDS011;9379;52.134;11.576;2023-08-21T11:03:40;0.95;;;0.93;;
18499;SDS011;9379;52.134;11.576;2023-08-21T11:06:11;1.45;;;1.35;;
18499;SDS011;9379;52.134;11.576;2023-08-21T11:08:38;1.90;;;1.58;;
18499;SDS011;9379;52.134;11.576;2023-08-21T11:11:07;0.85;;;0.85;;
18499;SDS011;9379;52.134;11.576;2023-08-21T11:13:36;0.95;;;0.90;;
18499;SDS011;9379;52.134;11.576;2023-08-21T11:16:04;5.07;;;1.67;;
18499;SDS011;9379;52.134;11.576;2023-08-21T11:18:32;1.00;;;0.98;;
18499;SDS011;9379;52.134;11.576;2023-08-21T11:21:03;0.88;;;0.88;;
18499;SDS011;9379;52.134;11.576;2023-08-21T11:23:32;1.20;;;1.10;;
18499;SDS011;9379;52.134;11.576;2023-08-21T11:25:59;1.38;;;1.27;;
18499;SDS011;9379;52.134;11.576;2023-08-21T11:28:28;3.13;;;1.30;;
18499;SDS011;9379;52.134;11.576;2023-08-21T11:30:56;1.55;;;1.17;;
18499;SDS011;9379;52.134;11.576;2023-08-21T11:33:25;1.95;;;1.13;;
18499;SDS011;9379;52.134;11.576;2023-08-21T11:35:54;2.72;;;1.58;;
18499;SDS011;9379;52.134;11.576;2023-08-21T11:38:24;2.30;;;1.88;;
18499;SDS011;9379;52.134;11.576;2023-08-21T11:40:53;1.13;;;1.02;;
18499;SDS011;9379;52.134;11.576;2023-08-21T11:43:35;0.90;;;0.90;;
18499;SDS011;9379;52.134;11.576;2023-08-21T11:46:02;1.30;;;1.05;;
18499;SDS011;9379;52.134;11.576;2023-08-21T11:48:29;1.83;;;1.30;;
18499;SDS011;9379;52.134;11.576;2023-08-21T11:50:57;1.10;;;0.70;;
18499;SDS011;9379;52.134;11.576;2023-08-21T11:53:31;4.20;;;0.77;;
18499;SDS011;9379;52.134;11.576;2023-08-21T11:55:59;1.50;;;0.93;;
18499;SDS011;9379;52.134;11.576;2023-08-21T11:58:26;1.08;;;1.02;;
18499;SDS011;9379;52.134;11.576;2023-08-21T12:00:55;0.30;;;0.25;;
18499;SDS011;9379;52.134;11.576;2023-08-21T12:03:29;2.03;;;0.98;;
18499;SDS011;9379;52.134;11.576;2023-08-21T12:05:56;1.70;;;0.50;;
18499;SDS011;9379;52.134;11.576;2023-08-21T12:08:23;3.28;;;0.90;;
18499;SDS011;9379;52.134;11.576;2023-08-21T12:10:50;0.98;;;0.60;;
18499;SDS011;9379;52.134;11.576;2023-08-21T12:13:18;0.65;;;0.52;;
18499;SDS011;9379;52.134;11.576;2023-08-21T12:15:45;0.98;;;0.70;;
18499;SDS011;9379;52.134;11.576;2023-08-21T12:18:13;5.28;;;1.55;;
18499;SDS011;9379;52.134;11.576;2023-08-21T12:20:40;0.63;;;0.50;;
18499;SDS011;9379;52.134;11.576;2023-08-21T12:23:07;1.42;;;0.60;;
18499;SDS011;9379;52.134;11.576;2023-08-21T12:25:36;1.20;;;0.80;;
18499;SDS011;9379;52.134;11.576;2023-08-21T12:28:03;0.68;;;0.60;;
18499;SDS011;9379;52.134;11.576;2023-08-21T12:30:33;1.13;;;0.75;;
18499;SDS011;9379;52.134;11.576;2023-08-21T12:33:00;1.17;;;1.08;;
18499;SDS011;9379;52.134;11.576;2023-08-21T12:35:29;0.82;;;0.70;;
18499;SDS011;9379;52.134;11.576;2023-08-21T12:37:56;0.60;;;0.60;;
18499;SDS011;9379;52.134;11.576;2023-08-21T12:40:30;2.97;;;1.42;;
18499;SDS011;9379;52.134;11.576;2023-08-21T12:42:57;1.23;;;0.80;;
18499;SDS011;9379;52.134;11.576;2023-08-21T12:45:24;3.40;;;1.35;;
18499;SDS011;9379;52.134;11.576;2023-08-21T12:47:52;1.17;;;0.63;;
18499;SDS011;9379;52.134;11.576;2023-08-21T12:50:20;1.83;;;0.95;;
18499;SDS011;9379;52.134;11.576;2023-08-21T12:52:48;0.30;;;0.30;;
18499;SDS011;9379;52.134;11.576;2023-08-21T12:55:15;2.28;;;0.85;;
18499;SDS011;9379;52.134;11.576;2023-08-21T12:57:42;1.13;;;0.88;;
18499;SDS011;9379;52.134;11.576;2023-08-21T13:00:09;0.55;;;0.50;;
18499;SDS011;9379;52.134;11.576;2023-08-21T13:02:37;1.67;;;0.43;;
18499;SDS011;9379;52.134;11.576;2023-08-21T13:05:04;4.55;;;1.05;;
18499;SDS011;9379;52.134;11.576;2023-08-21T13:07:32;0.60;;;0.60;;
18499;SDS011;9379;52.134;11.576;2023-08-21T13:10:01;2.40;;;0.55;;
18499;SDS011;9379;52.134;11.576;2023-08-21T13:12:27;2.30;;;0.50;;
18499;SDS011;9379;52.134;11.576;2023-08-21T13:14:55;3.63;;;1.48;;
18499;SDS011;9379;52.134;11.576;2023-08-21T13:17:23;1.25;;;0.82;;
18499;SDS011;9379;52.134;11.576;2023-08-21T13:19:50;0.55;;;0.55;;
18499;SDS011;9379;52.134;11.576;2023-08-21T13:22:18;1.60;;;0.80;;
18499;SDS011;9379;52.134;11.576;2023-08-21T13:24:47;3.13;;;1.38;;
18499;SDS011;9379;52.134;11.576;2023-08-21T13:27:15;0.77;;;0.73;;
18499;SDS011;9379;52.134;11.576;2023-08-21T13:29:43;1.65;;;0.93;;
18499;SDS011;9379;52.134;11.576;2023-08-21T13:32:12;2.42;;;0.70;;
18499;SDS011;9379;52.134;11.576;2023-08-21T13:34:40;1.35;;;1.15;;
18499;SDS011;9379;52.134;11.576;2023-08-21T13:37:07;1.08;;;0.73;;
18499;SDS011;9379;52.134;11.576;2023-08-21T13:39:35;4.75;;;1.63;;
18499;SDS011;9379;52.134;11.576;2023-08-21T13:42:02;4.97;;;1.38;;
18499;SDS011;9379;52.134;11.576;2023-08-21T13:44:31;1.77;;;1.45;;
18499;SDS011;9379;52.134;11.576;2023-08-21T13:46:58;1.08;;;0.60;;
18499;SDS011;9379;52.134;11.576;2023-08-21T13:49:26;1.23;;;0.80;;
18499;SDS011;9379;52.134;11.576;2023-08-21T13:51:53;0.47;;;0.47;;
18499;SDS011;9379;52.134;11.576;2023-08-21T13:54:21;1.23;;;0.60;;
18499;SDS011;9379;52.134;11.576;2023-08-21T13:56:49;1.13;;;0.98;;
18499;SDS011;9379;52.134;11.576;2023-08-21T13:59:17;0.50;;;0.50;;
18499;SDS011;9379;52.134;11.576;2023-08-21T14:01:45;2.42;;;1.10;;
18499;SDS011;9379;52.134;11.576;2023-08-21T14:04:12;1.40;;;0.80;;
18499;SDS011;9379;52.134;11.576;2023-08-21T14:06:39;3.00;;;1.50;;
18499;SDS011;9379;52.134;11.576;2023-08-21T14:09:07;1.83;;;1.63;;
18499;SDS011;9379;52.134;11.576;2023-08-21T14:11:35;0.93;;;0.93;;
18499;SDS011;9379;52.134;11.576;2023-08-21T14:14:01;2.67;;;0.60;;
18499;SDS011;9379;52.134;11.576;2023-08-21T14:16:29;1.58;;;0.73;;
18499;SDS011;9379;52.134;11.576;2023-08-21T14:18:57;2.17;;;0.80;;
18499;SDS011;9379;52.134;11.576;2023-08-21T14:21:24;3.25;;;1.17;;
18499;SDS011;9379;52.134;11.576;2023-08-21T14:23:51;0.95;;;0.82;;
18499;SDS011;9379;52.134;11.576;2023-08-21T14:26:18;2.15;;;0.80;;
18499;SDS011;9379;52.134;11.576;2023-08-21T14:28:45;0.70;;;0.60;;
18499;SDS011;9379;52.134;11.576;2023-08-21T14:31:15;0.75;;;0.60;;
18499;SDS011;9379;52.134;11.576;2023-08-21T14:33:42;3.30;;;0.88;;
18499;SDS011;9379;52.134;11.576;2023-08-21T14:36:11;0.82;;;0.75;;
18499;SDS011;9379;52.134;11.576;2023-08-21T14:38:38;1.13;;;1.02;;
18499;SDS011;9379;52.134;11.576;2023-08-21T14:41:05;3.00;;;0.80;;
18499;SDS011;9379;52.134;11.576;2023-08-21T14:43:32;1.08;;;0.90;;
18499;SDS011;9379;52.134;11.576;2023-08-21T14:45:59;0.38;;;0.38;;
18499;SDS011;9379;52.134;11.576;2023-08-21T14:48:26;1.45;;;1.13;;
18499;SDS011;9379;52.134;11.576;2023-08-21T14:50:53;0.70;;;0.60;;
18499;SDS011;9379;52.134;11.576;2023-08-21T14:53:21;1.20;;;0.40;;
18499;SDS011;9379;52.134;11.576;2023-08-21T14:55:48;1.08;;;0.60;;
18499;SDS011;9379;52.134;11.576;2023-08-21T14:58:16;2.60;;;0.90;;